sensor_id;sensor_type;location;lat;lon;timestamp;pressure;altitude;pressure_sealevel;temperature;humidity
59419;BME280;45224;50.904;6.038;2022-12-19T00:01:25;100131.56;;;1.86;100.00
59419;BME280;45224;50.904;6.038;2022-12-19T00:02:56;100138.44;;;1.89;100.00
59419;BME280;45224;50.904;6.038;2022-12-19T00:04:27;100133.22;;;1.86;100.00
59419;BME280;45224;50.904;6.038;2022-12-19T00:06:01;100124.97;;;1.91;100.00
59419;BME280;45224;50.904;6.038;2022-12-19T00:07:32;100125.88;;;1.93;100.00
59419;BME280;45224;50.904;6.038;2022-12-19T00:09:03;100117.19;;;1.88;100.00
59419;BME280;45224;50.904;6.038;2022-12-19T00:10:34;100114.94;;;1.96;100.00
59419;BME280;45224;50.904;6.038;2022-12-19T00:12:04;100115.06;;;1.99;100.00
59419;BME280;45224;50.904;6.038;2022-12-19T00:13:35;100107.59;;;2.04;100.00
59419;BME280;45224;50.904;6.038;2022-12-19T00:15:08;100102.50;;;2.04;100.00
59419;BME280;45224;50.904;6.038;2022-12-19T00:16:39;100105.97;;;2.06;100.00
59419;BME280;45224;50.904;6.038;2022-12-19T00:18:09;100108.66;;;2.09;100.00
59419;BME280;45224;50.904;6.038;2022-12-19T00:19:40;100108.72;;;2.10;100.00
59419;BME280;45224;50.904;6.038;2022-12-19T00:21:12;100098.00;;;2.19;100.00
59419;BME280;45224;50.904;6.038;2022-12-19T00:22:43;100103.22;;;2.22;99.99
59419;BME280;45224;50.904;6.038;2022-12-19T00:24:13;100096.34;;;2.21;99.56
59419;BME280;45224;50.904;6.038;2022-12-19T00:25:44;100098.22;;;2.25;99.39
59419;BME280;45224;50.904;6.038;2022-12-19T00:27:14;100091.50;;;2.27;98.76
59419;BME280;45224;50.904;6.038;2022-12-19T00:28:47;100101.03;;;2.31;99.69
59419;BME280;45224;50.904;6.038;2022-12-19T00:30:18;100081.28;;;2.27;99.30
59419;BME280;45224;50.904;6.038;2022-12-19T00:31:48;100107.03;;;2.33;100.00
59419;BME280;45224;50.904;6.038;2022-12-19T00:33:19;100114.81;;;2.36;99.88
59419;BME280;45224;50.904;6.038;2022-12-19T00:34:49;100126.06;;;2.42;99.68
59419;BME280;45224;50.904;6.038;2022-12-19T00:36:22;100109.19;;;2.45;99.17
59419;BME280;45224;50.904;6.038;2022-12-19T00:37:53;100107.47;;;2.44;99.57
59419;BME280;45224;50.904;6.038;2022-12-19T00:39:24;100113.66;;;2.51;98.96
59419;BME280;45224;50.904;6.038;2022-12-19T00:40:54;100122.22;;;2.53;98.72
59419;BME280;45224;50.904;6.038;2022-12-19T00:42:25;100123.94;;;2.52;98.95
59419;BME280;45224;50.904;6.038;2022-12-19T00:44:02;100126.53;;;2.54;99.36
59419;BME280;45224;50.904;6.038;2022-12-19T00:45:37;100116.94;;;2.48;99.51
59419;BME280;45224;50.904;6.038;2022-12-19T00:47:07;100124.22;;;2.60;99.31
59419;BME280;45224;50.904;6.038;2022-12-19T00:48:38;100122.59;;;2.62;98.73
59419;BME280;45224;50.904;6.038;2022-12-19T00:50:08;100121.72;;;2.62;99.05
59419;BME280;45224;50.904;6.038;2022-12-19T00:51:39;100115.16;;;2.68;99.38
59419;BME280;45224;50.904;6.038;2022-12-19T00:53:12;100107.50;;;2.68;99.91
59419;BME280;45224;50.904;6.038;2022-12-19T00:54:42;100102.56;;;2.73;99.82
59419;BME280;45224;50.904;6.038;2022-12-19T00:56:19;100096.81;;;2.79;99.29
59419;BME280;45224;50.904;6.038;2022-12-19T00:57:50;100092.41;;;2.74;99.80
59419;BME280;45224;50.904;6.038;2022-12-19T00:59:20;100084.03;;;2.79;99.33
59419;BME280;45224;50.904;6.038;2022-12-19T01:00:52;100095.28;;;2.84;99.11
59419;BME280;45224;50.904;6.038;2022-12-19T01:02:22;100085.13;;;2.85;99.74
59419;BME280;45224;50.904;6.038;2022-12-19T01:03:53;100088.56;;;2.86;99.54
59419;BME280;45224;50.904;6.038;2022-12-19T01:05:24;100092.91;;;2.88;99.60
59419;BME280;45224;50.904;6.038;2022-12-19T01:06:54;100080.19;;;2.90;98.41
59419;BME280;45224;50.904;6.038;2022-12-19T01:08:25;100096.53;;;2.95;97.41
59419;BME280;45224;50.904;6.038;2022-12-19T01:09:56;100082.03;;;2.94;97.83
59419;BME280;45224;50.904;6.038;2022-12-19T01:11:27;100077.03;;;2.97;97.51
59419;BME280;45224;50.904;6.038;2022-12-19T01:13:19;100073.66;;;2.98;96.09
59419;BME280;45224;50.904;6.038;2022-12-19T01:14:54;100076.38;;;3.03;96.02
59419;BME280;45224;50.904;6.038;2022-12-19T01:16:25;100075.50;;;3.02;96.24
59419;BME280;45224;50.904;6.038;2022-12-19T01:17:55;100058.66;;;3.07;95.61
59419;BME280;45224;50.904;6.038;2022-12-19T01:19:26;100059.34;;;3.03;95.89
59419;BME280;45224;50.904;6.038;2022-12-19T01:20:59;100071.44;;;3.07;95.61
59419;BME280;45224;50.904;6.038;2022-12-19T01:22:31;100064.63;;;3.08;95.29
59419;BME280;45224;50.904;6.038;2022-12-19T01:24:03;100063.25;;;3.18;95.23
59419;BME280;45224;50.904;6.038;2022-12-19T01:25:35;100066.69;;;3.18;94.76
59419;BME280;45224;50.904;6.038;2022-12-19T01:27:07;100062.22;;;3.13;95.23
59419;BME280;45224;50.904;6.038;2022-12-19T01:28:38;100058.97;;;3.17;94.54
59419;BME280;45224;50.904;6.038;2022-12-19T01:30:09;100043.94;;;3.26;94.30
59419;BME280;45224;50.904;6.038;2022-12-19T01:31:41;100045.38;;;3.18;94.43
59419;BME280;45224;50.904;6.038;2022-12-19T01:33:12;100057.66;;;3.28;94.32
59419;BME280;45224;50.904;6.038;2022-12-19T01:34:43;100042.59;;;3.37;93.69
59419;BME280;45224;50.904;6.038;2022-12-19T01:36:14;100052.78;;;3.36;93.89
59419;BME280;45224;50.904;6.038;2022-12-19T01:37:44;100054.69;;;3.41;93.66
59419;BME280;45224;50.904;6.038;2022-12-19T01:39:15;100050.53;;;3.45;93.68
59419;BME280;45224;50.904;6.038;2022-12-19T01:40:56;100046.78;;;3.61;92.86
59419;BME280;45224;50.904;6.038;2022-12-19T01:42:33;100037.31;;;3.58;93.57
59419;BME280;45224;50.904;6.038;2022-12-19T01:44:06;100034.66;;;3.54;93.32
59419;BME280;45224;50.904;6.038;2022-12-19T01:45:37;100027.97;;;3.59;93.66
59419;BME280;45224;50.904;6.038;2022-12-19T01:47:10;100023.06;;;3.65;93.03
59419;BME280;45224;50.904;6.038;2022-12-19T01:48:42;100020.69;;;3.71;93.12
59419;BME280;45224;50.904;6.038;2022-12-19T01:50:18;100013.75;;;3.67;93.28
59419;BME280;45224;50.904;6.038;2022-12-19T01:51:51;100014.75;;;3.72;93.66
59419;BME280;45224;50.904;6.038;2022-12-19T01:53:25;100014.94;;;3.78;93.03
59419;BME280;45224;50.904;6.038;2022-12-19T01:54:57;100004.63;;;3.75;94.04
59419;BME280;45224;50.904;6.038;2022-12-19T01:56:32;99997.97;;;3.80;93.71
59419;BME280;45224;50.904;6.038;2022-12-19T01:58:04;100006.72;;;3.89;94.07
59419;BME280;45224;50.904;6.038;2022-12-19T01:59:58;99991.44;;;3.90;94.08
59419;BME280;45224;50.904;6.038;2022-12-19T02:01:28;99997.34;;;3.89;93.77
59419;BME280;45224;50.904;6.038;2022-12-19T02:03:04;100002.19;;;4.07;93.48
59419;BME280;45224;50.904;6.038;2022-12-19T02:04:38;99991.84;;;4.04;93.14
59419;BME280;45224;50.904;6.038;2022-12-19T02:06:12;99987.69;;;4.08;93.77
59419;BME280;45224;50.904;6.038;2022-12-19T02:07:43;99993.56;;;4.05;94.81
59419;BME280;45224;50.904;6.038;2022-12-19T02:09:14;99975.97;;;4.16;94.18
59419;BME280;45224;50.904;6.038;2022-12-19T02:10:45;99969.22;;;4.18;93.92
59419;BME280;45224;50.904;6.038;2022-12-19T02:12:17;99979.41;;;4.16;94.85
59419;BME280;45224;50.904;6.038;2022-12-19T02:13:48;99976.16;;;4.22;95.11
59419;BME280;45224;50.904;6.038;2022-12-19T02:15:19;99968.78;;;4.33;94.52
59419;BME280;45224;50.904;6.038;2022-12-19T02:17:03;99986.03;;;4.40;94.02
59419;BME280;45224;50.904;6.038;2022-12-19T02:18:48;99949.22;;;4.35;94.54
59419;BME280;45224;50.904;6.038;2022-12-19T02:24:15;99948.81;;;4.51;95.70
59419;BME280;45224;50.904;6.038;2022-12-19T02:31:14;99945.69;;;4.63;96.58
59419;BME280;45224;50.904;6.038;2022-12-19T02:33:01;99947.41;;;4.63;97.52
59419;BME280;45224;50.904;6.038;2022-12-19T02:35:06;99939.03;;;4.70;96.98
59419;BME280;45224;50.904;6.038;2022-12-19T02:36:40;99932.84;;;4.62;97.89
59419;BME280;45224;50.904;6.038;2022-12-19T02:38:25;99940.63;;;4.65;98.22
59419;BME280;45224;50.904;6.038;2022-12-19T02:40:01;99932.03;;;4.63;98.86
59419;BME280;45224;50.904;6.038;2022-12-19T02:41:55;99938.47;;;4.80;98.51
59419;BME280;45224;50.904;6.038;2022-12-19T02:43:29;99947.66;;;4.72;99.25
59419;BME280;45224;50.904;6.038;2022-12-19T02:45:01;99935.66;;;4.71;100.00
59419;BME280;45224;50.904;6.038;2022-12-19T02:46:33;99950.16;;;4.70;100.00
59419;BME280;45224;50.904;6.038;2022-12-19T02:48:05;99942.34;;;4.66;100.00
59419;BME280;45224;50.904;6.038;2022-12-19T02:49:37;99928.75;;;4.67;100.00
59419;BME280;45224;50.904;6.038;2022-12-19T02:51:08;99941.09;;;4.83;100.00
59419;BME280;45224;50.904;6.038;2022-12-19T02:52:43;99938.34;;;4.75;100.00
59419;BME280;45224;50.904;6.038;2022-12-19T02:54:15;99933.34;;;4.80;100.00
59419;BME280;45224;50.904;6.038;2022-12-19T02:57:27;99933.19;;;4.74;100.00
59419;BME280;45224;50.904;6.038;2022-12-19T03:01:12;99929.56;;;4.66;100.00
59419;BME280;45224;50.904;6.038;2022-12-19T03:02:54;99929.75;;;4.73;100.00
59419;BME280;45224;50.904;6.038;2022-12-19T03:06:12;99920.28;;;4.71;100.00
59419;BME280;45224;50.904;6.038;2022-12-19T03:07:54;99930.53;;;4.71;100.00
59419;BME280;45224;50.904;6.038;2022-12-19T03:10:15;99927.16;;;4.72;100.00
59419;BME280;45224;50.904;6.038;2022-12-19T03:11:30;99935.31;;;4.58;100.00
59419;BME280;45224;50.904;6.038;2022-12-19T03:13:26;99936.91;;;4.53;100.00
59419;BME280;45224;50.904;6.038;2022-12-19T03:14:58;99933.78;;;4.64;100.00
59419;BME280;45224;50.904;6.038;2022-12-19T03:16:29;99932.03;;;4.63;100.00
59419;BME280;45224;50.904;6.038;2022-12-19T03:18:00;99938.72;;;4.57;100.00
59419;BME280;45224;50.904;6.038;2022-12-19T03:19:32;99949.16;;;4.64;100.00
59419;BME280;45224;50.904;6.038;2022-12-19T03:21:14;99930.28;;;4.62;100.00
59419;BME280;45224;50.904;6.038;2022-12-19T03:22:46;99945.44;;;4.52;100.00
59419;BME280;45224;50.904;6.038;2022-12-19T03:24:17;99933.50;;;4.53;100.00
59419;BME280;45224;50.904;6.038;2022-12-19T03:25:51;99926.69;;;4.55;100.00
59419;BME280;45224;50.904;6.038;2022-12-19T03:27:28;99929.19;;;4.52;100.00
59419;BME280;45224;50.904;6.038;2022-12-19T03:29:10;99918.34;;;4.61;100.00
59419;BME280;45224;50.904;6.038;2022-12-19T03:30:44;99932.84;;;4.62;100.00
59419;BME280;45224;50.904;6.038;2022-12-19T03:32:16;99924.25;;;4.60;100.00
59419;BME280;45224;50.904;6.038;2022-12-19T03:33:50;99932.94;;;4.65;100.00
59419;BME280;45224;50.904;6.038;2022-12-19T03:35:26;99930.16;;;4.55;100.00
59419;BME280;45224;50.904;6.038;2022-12-19T03:37:01;99933.63;;;4.57;100.00
59419;BME280;45224;50.904;6.038;2022-12-19T03:38:33;99923.50;;;4.62;100.00
59419;BME280;45224;50.904;6.038;2022-12-19T03:40:09;99914.75;;;4.54;100.00
59419;BME280;45224;50.904;6.038;2022-12-19T03:41:42;99926.22;;;4.70;100.00
59419;BME280;45224;50.904;6.038;2022-12-19T03:43:33;99932.03;;;4.63;100.00
59419;BME280;45224;50.904;6.038;2022-12-19T03:45:05;99925.34;;;4.68;100.00
59419;BME280;45224;50.904;6.038;2022-12-19T03:46:40;99921.06;;;4.67;100.00
59419;BME280;45224;50.904;6.038;2022-12-19T03:49:50;99923.63;;;4.67;100.00
59419;BME280;45224;50.904;6.038;2022-12-19T03:54:40;99913.59;;;4.76;100.00
59419;BME280;45224;50.904;6.038;2022-12-19T03:56:48;99917.06;;;4.78;100.00
59419;BME280;45224;50.904;6.038;2022-12-19T03:58:15;99916.50;;;4.90;100.00
59419;BME280;45224;50.904;6.038;2022-12-19T03:59:59;99927.00;;;4.99;100.00
59419;BME280;45224;50.904;6.038;2022-12-19T04:01:32;99917.44;;;4.93;100.00
59419;BME280;45224;50.904;6.038;2022-12-19T04:03:04;99920.91;;;4.96;100.00
59419;BME280;45224;50.904;6.038;2022-12-19T04:04:40;99921.72;;;4.93;100.00
59419;BME280;45224;50.904;6.038;2022-12-19T04:06:12;99920.97;;;4.99;100.00
59419;BME280;45224;50.904;6.038;2022-12-19T04:07:44;99931.38;;;5.05;100.00
59419;BME280;45224;50.904;6.038;2022-12-19T04:09:18;99916.91;;;5.07;100.00
59419;BME280;45224;50.904;6.038;2022-12-19T04:10:53;99925.44;;;5.06;100.00
59419;BME280;45224;50.904;6.038;2022-12-19T04:12:30;99923.88;;;5.12;100.00
59419;BME280;45224;50.904;6.038;2022-12-19T04:14:07;99922.00;;;5.05;100.00
59419;BME280;45224;50.904;6.038;2022-12-19T04:16:34;99915.97;;;5.03;100.00
59419;BME280;45224;50.904;6.038;2022-12-19T04:17:57;99914.50;;;5.13;100.00
59419;BME280;45224;50.904;6.038;2022-12-19T04:19:35;99912.09;;;5.19;100.00
59419;BME280;45224;50.904;6.038;2022-12-19T04:21:11;99897.44;;;5.15;100.00
59419;BME280;45224;50.904;6.038;2022-12-19T04:23:03;99918.19;;;5.24;100.00
59419;BME280;45224;50.904;6.038;2022-12-19T04:24:37;99924.19;;;5.25;100.00
59419;BME280;45224;50.904;6.038;2022-12-19T04:26:10;99922.53;;;5.27;100.00
59419;BME280;45224;50.904;6.038;2022-12-19T04:27:47;99917.53;;;5.33;100.00
59419;BME280;45224;50.904;6.038;2022-12-19T04:29:21;99903.84;;;5.33;100.00
59419;BME280;45224;50.904;6.038;2022-12-19T04:30:54;99917.63;;;5.36;100.00
59419;BME280;45224;50.904;6.038;2022-12-19T04:32:25;99915.94;;;5.38;100.00
59419;BME280;45224;50.904;6.038;2022-12-19T04:33:56;99912.38;;;5.32;100.00
59419;BME280;45224;50.904;6.038;2022-12-19T04:35:27;99914.34;;;5.43;100.00
59419;BME280;45224;50.904;6.038;2022-12-19T04:36:57;99915.97;;;5.40;100.00
59419;BME280;45224;50.904;6.038;2022-12-19T04:38:28;99900.50;;;5.35;100.00
59419;BME280;45224;50.904;6.038;2022-12-19T04:39:59;99909.03;;;5.36;100.00
59419;BME280;45224;50.904;6.038;2022-12-19T04:41:29;99903.16;;;5.40;100.00
59419;BME280;45224;50.904;6.038;2022-12-19T04:43:00;99909.28;;;5.46;100.00
59419;BME280;45224;50.904;6.038;2022-12-19T04:44:31;99911.00;;;5.46;100.00
59419;BME280;45224;50.904;6.038;2022-12-19T04:46:01;99904.31;;;5.53;100.00
59419;BME280;45224;50.904;6.038;2022-12-19T04:47:32;99893.94;;;5.48;100.00
59419;BME280;45224;50.904;6.038;2022-12-19T04:49:02;99910.38;;;5.56;100.00
59419;BME280;45224;50.904;6.038;2022-12-19T04:50:33;99900.84;;;5.52;100.00
59419;BME280;45224;50.904;6.038;2022-12-19T04:52:04;99896.56;;;5.51;100.00
59419;BME280;45224;50.904;6.038;2022-12-19T04:53:34;99900.06;;;5.55;100.00
59419;BME280;45224;50.904;6.038;2022-12-19T04:55:05;99895.78;;;5.55;100.00
59419;BME280;45224;50.904;6.038;2022-12-19T04:56:36;99904.44;;;5.59;100.00
59419;BME280;45224;50.904;6.038;2022-12-19T04:58:06;99897.66;;;5.61;100.00
59419;BME280;45224;50.904;6.038;2022-12-19T04:59:37;99895.13;;;5.62;100.00
59419;BME280;45224;50.904;6.038;2022-12-19T05:01:08;99900.31;;;5.65;100.00
59419;BME280;45224;50.904;6.038;2022-12-19T05:02:38;99908.91;;;5.67;100.00
59419;BME280;45224;50.904;6.038;2022-12-19T05:04:09;99909.03;;;5.74;100.00
59419;BME280;45224;50.904;6.038;2022-12-19T05:05:40;99897.75;;;5.65;100.00
59419;BME280;45224;50.904;6.038;2022-12-19T05:07:12;99912.44;;;5.73;100.00
59419;BME280;45224;50.904;6.038;2022-12-19T05:08:42;99912.44;;;5.73;100.00
59419;BME280;45224;50.904;6.038;2022-12-19T05:10:13;99915.88;;;5.75;100.00
59419;BME280;45224;50.904;6.038;2022-12-19T05:11:44;99912.44;;;5.73;100.00
59419;BME280;45224;50.904;6.038;2022-12-19T05:13:14;99924.38;;;5.71;100.00
59419;BME280;45224;50.904;6.038;2022-12-19T05:14:45;99917.63;;;5.76;100.00
59419;BME280;45224;50.904;6.038;2022-12-19T05:16:15;99906.66;;;5.81;100.00
59419;BME280;45224;50.904;6.038;2022-12-19T05:17:46;99919.31;;;5.74;100.00
59419;BME280;45224;50.904;6.038;2022-12-19T05:19:16;99904.91;;;5.80;100.00
59419;BME280;45224;50.904;6.038;2022-12-19T05:20:47;99917.72;;;5.80;100.00
59419;BME280;45224;50.904;6.038;2022-12-19T05:22:18;99909.25;;;5.83;100.00
59419;BME280;45224;50.904;6.038;2022-12-19T05:23:49;99905.13;;;5.91;100.00
59419;BME280;45224;50.904;6.038;2022-12-19T05:25:20;99903.41;;;5.92;100.00
59419;BME280;45224;50.904;6.038;2022-12-19T05:26:50;99888.75;;;5.86;100.00
59419;BME280;45224;50.904;6.038;2022-12-19T05:28:21;99899.13;;;5.91;100.00
59419;BME280;45224;50.904;6.038;2022-12-19T05:29:51;99902.41;;;5.83;100.00
59419;BME280;45224;50.904;6.038;2022-12-19T05:31:22;99905.06;;;5.88;100.00
59419;BME280;45224;50.904;6.038;2022-12-19T05:32:52;99900.00;;;5.91;100.00
59419;BME280;45224;50.904;6.038;2022-12-19T05:34:23;99901.72;;;5.92;100.00
59419;BME280;45224;50.904;6.038;2022-12-19T05:35:54;99901.78;;;5.95;100.00
59419;BME280;45224;50.904;6.038;2022-12-19T05:37:24;99902.69;;;5.97;100.00
59419;BME280;45224;50.904;6.038;2022-12-19T05:38:55;99900.88;;;5.93;100.00
59419;BME280;45224;50.904;6.038;2022-12-19T05:40:25;99899.22;;;5.95;100.00
59419;BME280;45224;50.904;6.038;2022-12-19T05:41:55;99902.69;;;5.97;100.00
59419;BME280;45224;50.904;6.038;2022-12-19T05:43:26;99911.38;;;6.02;100.00
59419;BME280;45224;50.904;6.038;2022-12-19T05:44:57;99902.81;;;6.03;100.00
59419;BME280;45224;50.904;6.038;2022-12-19T05:46:27;99897.03;;;6.12;100.00
59419;BME280;45224;50.904;6.038;2022-12-19T05:47:58;99895.41;;;6.17;100.00
59419;BME280;45224;50.904;6.038;2022-12-19T05:49:28;99896.16;;;6.12;100.00
59419;BME280;45224;50.904;6.038;2022-12-19T05:50:59;99899.78;;;6.23;100.00
59419;BME280;45224;50.904;6.038;2022-12-19T05:52:29;99923.75;;;6.22;100.00
59419;BME280;45224;50.904;6.038;2022-12-19T05:54:00;99911.81;;;6.24;100.00
59419;BME280;45224;50.904;6.038;2022-12-19T05:55:30;99919.66;;;6.32;100.00
59419;BME280;45224;50.904;6.038;2022-12-19T05:57:01;99923.13;;;6.34;100.00
59419;BME280;45224;50.904;6.038;2022-12-19T05:58:31;99915.38;;;6.32;100.00
59419;BME280;45224;50.904;6.038;2022-12-19T06:00:04;99917.13;;;6.33;100.00
59419;BME280;45224;50.904;6.038;2022-12-19T06:01:42;99924.97;;;6.43;100.00
59419;BME280;45224;50.904;6.038;2022-12-19T06:03:13;99915.50;;;6.38;100.00
59419;BME280;45224;50.904;6.038;2022-12-19T06:04:43;99911.06;;;6.31;100.00
59419;BME280;45224;50.904;6.038;2022-12-19T06:06:16;99917.28;;;6.43;100.00
59419;BME280;45224;50.904;6.038;2022-12-19T06:07:47;99908.75;;;6.44;100.00
59419;BME280;45224;50.904;6.038;2022-12-19T06:09:17;99926.66;;;6.40;100.00
59419;BME280;45224;50.904;6.038;2022-12-19T06:10:48;99916.34;;;6.39;100.00
59419;BME280;45224;50.904;6.038;2022-12-19T06:12:18;99913.66;;;6.33;100.00
59419;BME280;45224;50.904;6.038;2022-12-19T06:13:49;99910.38;;;6.38;100.00
59419;BME280;45224;50.904;6.038;2022-12-19T06:15:19;99912.00;;;6.33;100.00
59419;BME280;45224;50.904;6.038;2022-12-19T06:16:49;99908.56;;;6.34;100.00
59419;BME280;45224;50.904;6.038;2022-12-19T06:18:20;99916.16;;;6.30;100.00
59419;BME280;45224;50.904;6.038;2022-12-19T06:19:50;99911.91;;;6.30;100.00
59419;BME280;45224;50.904;6.038;2022-12-19T06:21:21;99890.50;;;6.30;100.00
59419;BME280;45224;50.904;6.038;2022-12-19T06:22:52;99906.66;;;6.24;100.00
59419;BME280;45224;50.904;6.038;2022-12-19T06:24:25;99915.28;;;6.28;100.00
59419;BME280;45224;50.904;6.038;2022-12-19T06:25:57;99927.22;;;6.24;100.00
59419;BME280;45224;50.904;6.038;2022-12-19T06:27:28;99922.84;;;6.20;100.00
59419;BME280;45224;50.904;6.038;2022-12-19T06:28:58;99913.53;;;6.25;100.00
59419;BME280;45224;50.904;6.038;2022-12-19T06:30:29;99904.16;;;6.27;100.00
59419;BME280;45224;50.904;6.038;2022-12-19T06:31:59;99913.53;;;6.25;100.00
59419;BME280;45224;50.904;6.038;2022-12-19T06:33:30;99916.94;;;6.24;100.00
59419;BME280;45224;50.904;6.038;2022-12-19T06:35:01;99922.13;;;6.27;100.00
59419;BME280;45224;50.904;6.038;2022-12-19T06:36:32;99917.78;;;6.25;100.00
59419;BME280;45224;50.904;6.038;2022-12-19T06:38:02;99925.84;;;6.42;100.00
59419;BME280;45224;50.904;6.038;2022-12-19T06:39:33;99901.53;;;6.24;100.00
59419;BME280;45224;50.904;6.038;2022-12-19T06:41:03;99917.84;;;6.28;100.00
59419;BME280;45224;50.904;6.038;2022-12-19T06:42:52;99908.47;;;6.28;100.00
59419;BME280;45224;50.904;6.038;2022-12-19T06:44:23;99909.19;;;6.22;100.00
59419;BME280;45224;50.904;6.038;2022-12-19T06:45:55;99912.53;;;6.17;100.00
59419;BME280;45224;50.904;6.038;2022-12-19T06:47:27;99901.34;;;6.15;100.00
59419;BME280;45224;50.904;6.038;2022-12-19T06:48:57;99907.53;;;6.25;100.00
59419;BME280;45224;50.904;6.038;2022-12-19T06:50:28;99904.19;;;6.29;100.00
59419;BME280;45224;50.904;6.038;2022-12-19T06:51:58;99916.94;;;6.24;100.00
59419;BME280;45224;50.904;6.038;2022-12-19T06:53:29;99898.06;;;6.22;100.00
59419;BME280;45224;50.904;6.038;2022-12-19T06:55:00;99910.06;;;6.23;100.00
59419;BME280;45224;50.904;6.038;2022-12-19T06:56:37;99910.91;;;6.22;100.00
59419;BME280;45224;50.904;6.038;2022-12-19T06:58:08;99918.75;;;6.28;100.00
59419;BME280;45224;50.904;6.038;2022-12-19T06:59:39;99924.53;;;6.19;100.00
59419;BME280;45224;50.904;6.038;2022-12-19T07:01:17;99922.84;;;6.20;100.00
59419;BME280;45224;50.904;6.038;2022-12-19T07:02:49;99943.47;;;6.25;100.00
59419;BME280;45224;50.904;6.038;2022-12-19T07:04:28;99945.25;;;6.27;100.00
59419;BME280;45224;50.904;6.038;2022-12-19T07:06:00;99911.03;;;6.28;100.00
59419;BME280;45224;50.904;6.038;2022-12-19T07:07:31;99928.16;;;6.29;100.00
59419;BME280;45224;50.904;6.038;2022-12-19T07:09:01;99927.41;;;6.35;100.00
59419;BME280;45224;50.904;6.038;2022-12-19T07:10:32;99921.44;;;6.36;100.00
59419;BME280;45224;50.904;6.038;2022-12-19T07:12:02;99932.66;;;6.39;100.00
59419;BME280;45224;50.904;6.038;2022-12-19T07:13:33;99925.72;;;6.35;100.00
59419;BME280;45224;50.904;6.038;2022-12-19T07:15:04;99924.88;;;6.36;100.00
59419;BME280;45224;50.904;6.038;2022-12-19T07:16:34;99905.16;;;6.35;100.00
59419;BME280;45224;50.904;6.038;2022-12-19T07:18:07;99903.47;;;6.37;100.00
59419;BME280;45224;50.904;6.038;2022-12-19T07:19:39;99917.28;;;6.43;100.00
59419;BME280;45224;50.904;6.038;2022-12-19T07:21:09;99908.75;;;6.44;100.00
59419;BME280;45224;50.904;6.038;2022-12-19T07:22:41;99915.72;;;6.49;100.00
59419;BME280;45224;50.904;6.038;2022-12-19T07:24:12;99912.19;;;6.46;100.00
59419;BME280;45224;50.904;6.038;2022-12-19T07:25:44;99920.03;;;6.52;100.00
59419;BME280;45224;50.904;6.038;2022-12-19T07:27:14;99923.34;;;6.46;100.00
59419;BME280;45224;50.904;6.038;2022-12-19T07:28:45;99925.00;;;6.44;100.00
59419;BME280;45224;50.904;6.038;2022-12-19T07:30:15;99921.69;;;6.48;100.00
59419;BME280;45224;50.904;6.038;2022-12-19T07:31:46;99930.13;;;6.43;100.00
59419;BME280;45224;50.904;6.038;2022-12-19T07:33:16;99932.69;;;6.43;100.00
59419;BME280;45224;50.904;6.038;2022-12-19T07:34:47;99934.50;;;6.47;100.00
59419;BME280;45224;50.904;6.038;2022-12-19T07:36:17;99925.84;;;6.42;100.00
59419;BME280;45224;50.904;6.038;2022-12-19T07:37:49;99943.03;;;6.47;100.00
59419;BME280;45224;50.904;6.038;2022-12-19T07:39:19;99926.69;;;6.42;100.00
59419;BME280;45224;50.904;6.038;2022-12-19T07:40:51;99926.84;;;6.50;100.00
59419;BME280;45224;50.904;6.038;2022-12-19T07:42:21;99934.50;;;6.47;100.00
59419;BME280;45224;50.904;6.038;2022-12-19T07:43:53;99936.16;;;6.45;100.00
59419;BME280;45224;50.904;6.038;2022-12-19T07:45:24;99941.44;;;6.51;100.00
59419;BME280;45224;50.904;6.038;2022-12-19T07:46:54;99932.72;;;6.44;100.00
59419;BME280;45224;50.904;6.038;2022-12-19T07:48:25;99948.22;;;6.49;100.00
59419;BME280;45224;50.904;6.038;2022-12-19T07:49:55;99944.69;;;6.44;100.00
59419;BME280;45224;50.904;6.038;2022-12-19T07:51:25;99944.63;;;6.40;100.00
59419;BME280;45224;50.904;6.038;2022-12-19T07:52:57;99942.94;;;6.39;100.00
59419;BME280;45224;50.904;6.038;2022-12-19T07:54:27;99951.47;;;6.38;100.00
59419;BME280;45224;50.904;6.038;2022-12-19T07:55:58;99950.72;;;6.46;100.00
59419;BME280;45224;50.904;6.038;2022-12-19T07:57:28;99958.38;;;6.43;100.00
59419;BME280;45224;50.904;6.038;2022-12-19T07:58:59;99956.59;;;6.38;100.00
59419;BME280;45224;50.904;6.038;2022-12-19T08:00:29;99957.53;;;6.44;100.00
59419;BME280;45224;50.904;6.038;2022-12-19T08:02:00;99946.38;;;6.42;100.00
59419;BME280;45224;50.904;6.038;2022-12-19T08:03:31;99942.94;;;6.43;100.00
59419;BME280;45224;50.904;6.038;2022-12-19T08:05:03;99939.56;;;6.44;100.00
59419;BME280;45224;50.904;6.038;2022-12-19T08:06:33;99934.72;;;6.59;100.00
59419;BME280;45224;50.904;6.038;2022-12-19T08:08:04;99934.50;;;6.47;100.00
59419;BME280;45224;50.904;6.038;2022-12-19T08:09:34;99938.06;;;6.55;100.00
59419;BME280;45224;50.904;6.038;2022-12-19T08:11:10;99946.66;;;6.57;100.00
59419;BME280;45224;50.904;6.038;2022-12-19T08:12:42;99949.13;;;6.51;100.00
59419;BME280;45224;50.904;6.038;2022-12-19T08:14:12;99939.81;;;6.56;100.00
59419;BME280;45224;50.904;6.038;2022-12-19T08:15:43;99946.78;;;6.63;100.00
59419;BME280;45224;50.904;6.038;2022-12-19T08:17:13;99947.66;;;6.64;100.00
59419;BME280;45224;50.904;6.038;2022-12-19T08:18:44;99942.41;;;6.57;100.00
59419;BME280;45224;50.904;6.038;2022-12-19T08:20:15;99943.19;;;6.55;100.00
59419;BME280;45224;50.904;6.038;2022-12-19T08:21:45;99940.75;;;6.61;100.00
59419;BME280;45224;50.904;6.038;2022-12-19T08:23:16;99933.84;;;6.58;100.00
59419;BME280;45224;50.904;6.038;2022-12-19T08:24:46;99939.31;;;6.75;100.00
59419;BME280;45224;50.904;6.038;2022-12-19T08:26:18;99938.41;;;6.73;100.00
59419;BME280;45224;50.904;6.038;2022-12-19T08:27:54;99950.22;;;6.65;100.00
59419;BME280;45224;50.904;6.038;2022-12-19T08:29:24;99950.09;;;6.56;100.00
59419;BME280;45224;50.904;6.038;2022-12-19T08:30:55;99949.31;;;6.62;100.00
59419;BME280;45224;50.904;6.038;2022-12-19T08:32:28;99946.94;;;6.72;100.00